createdAt,value
2022-09-27T00:00:04.658Z,0.60
2022-09-27T00:02:31.113Z,0.80
2022-09-27T00:04:58.464Z,1.10
2022-09-27T00:07:24.913Z,0.75
2022-09-27T00:09:51.326Z,0.52
2022-09-27T00:12:17.699Z,0.50
2022-09-27T00:14:44.133Z,1.77
2022-09-27T00:17:10.727Z,0.70
2022-09-27T00:19:37.111Z,0.57
2022-09-27T00:22:03.734Z,1.00
2022-09-27T00:24:31.142Z,1.52
2022-09-27T00:26:57.791Z,0.70
2022-09-27T00:29:24.343Z,0.73
2022-09-27T00:31:50.765Z,1.08
2022-09-27T00:34:22.908Z,0.75
2022-09-27T00:36:51.972Z,0.50
2022-09-27T00:39:19.098Z,1.73
2022-09-27T00:41:46.026Z,0.80
2022-09-27T00:44:33.869Z,1.08
2022-09-27T00:47:13.000Z,0.70
2022-09-27T00:49:47.598Z,0.50
2022-09-27T00:52:23.801Z,2.30
2022-09-27T00:54:54.053Z,0.70
2022-09-27T00:57:21.948Z,0.75
2022-09-27T00:59:54.067Z,0.50
2022-09-27T01:02:20.670Z,0.70
2022-09-27T01:04:48.193Z,1.02
2022-09-27T01:07:15.092Z,0.68
2022-09-27T01:09:41.722Z,0.68
2022-09-27T01:12:25.496Z,0.60
2022-09-27T01:15:09.691Z,0.90
2022-09-27T01:17:49.368Z,0.60
2022-09-27T01:20:33.776Z,0.60
2022-09-27T01:23:18.261Z,0.73
2022-09-27T01:26:00.161Z,1.52
2022-09-27T01:28:58.409Z,0.70
2022-09-27T01:31:52.066Z,0.47
2022-09-27T01:34:42.733Z,2.17
2022-09-27T01:37:24.774Z,2.60
2022-09-27T01:40:02.071Z,0.60
2022-09-27T01:43:07.834Z,2.38
2022-09-27T01:45:39.668Z,0.70
2022-09-27T01:48:15.921Z,2.15
2022-09-27T01:50:54.001Z,1.27
2022-09-27T01:53:25.571Z,1.75
2022-09-27T01:55:55.380Z,0.93
2022-09-27T01:58:33.461Z,0.93
2022-09-27T02:01:01.901Z,0.80
2022-09-27T02:03:32.276Z,0.70
2022-09-27T02:06:09.368Z,0.50
2022-09-27T02:08:41.751Z,0.80
2022-09-27T02:11:15.837Z,0.60
2022-09-27T02:13:54.781Z,0.55
2022-09-27T02:16:49.656Z,0.93
2022-09-27T02:19:43.517Z,0.60
2022-09-27T02:22:39.375Z,0.60
2022-09-27T02:25:11.693Z,0.40
2022-09-27T02:28:00.455Z,2.00
2022-09-27T02:30:27.278Z,1.08
2022-09-27T02:32:54.054Z,0.52
2022-09-27T02:35:29.609Z,1.95
2022-09-27T02:37:57.405Z,1.83
2022-09-27T02:40:24.744Z,1.35
2022-09-27T02:42:51.844Z,0.77
2022-09-27T02:45:19.941Z,0.52
2022-09-27T02:48:20.312Z,1.00
2022-09-27T02:51:05.148Z,0.70
2022-09-27T02:53:56.117Z,0.68
2022-09-27T02:56:39.865Z,0.50
2022-09-27T02:59:33.211Z,0.50
2022-09-27T03:02:31.375Z,0.52
2022-09-27T03:05:11.572Z,1.08
2022-09-27T03:07:38.684Z,1.35
2022-09-27T03:10:06.302Z,0.50
2022-09-27T03:12:33.701Z,0.90
2022-09-27T03:15:01.025Z,1.33
2022-09-27T03:17:27.430Z,0.50
2022-09-27T03:19:53.851Z,0.40
2022-09-27T03:22:20.304Z,0.77
2022-09-27T03:24:46.824Z,0.93
2022-09-27T03:27:13.249Z,0.50
2022-09-27T03:29:39.649Z,0.88
2022-09-27T03:32:06.092Z,0.45
2022-09-27T03:34:32.558Z,0.47
2022-09-27T03:36:59.054Z,0.47
2022-09-27T03:39:25.516Z,1.00
2022-09-27T03:41:52.027Z,0.60
2022-09-27T03:44:18.682Z,0.52
2022-09-27T03:46:45.140Z,0.47
2022-09-27T03:49:11.558Z,0.75
2022-09-27T03:51:37.904Z,0.88
2022-09-27T03:54:04.572Z,0.68
2022-09-27T03:56:31.011Z,0.63
2022-09-27T03:58:57.431Z,0.50
2022-09-27T04:01:23.932Z,1.38
2022-09-27T04:03:50.349Z,1.08
2022-09-27T04:06:17.859Z,0.55
2022-09-27T04:08:44.947Z,0.60
2022-09-27T04:11:11.612Z,0.55
2022-09-27T04:13:38.132Z,0.40
2022-09-27T04:16:04.688Z,0.50
2022-09-27T04:18:31.152Z,0.60
2022-09-27T04:20:57.548Z,2.77
2022-09-27T04:23:29.063Z,1.20
2022-09-27T04:25:56.255Z,0.90
2022-09-27T04:28:23.519Z,0.60
2022-09-27T04:30:50.043Z,1.27
2022-09-27T04:33:16.697Z,1.17
2022-09-27T04:36:02.061Z,0.77
2022-09-27T04:38:28.658Z,0.82
2022-09-27T04:40:55.189Z,1.33
2022-09-27T04:43:21.627Z,1.77
2022-09-27T04:45:48.219Z,0.47
2022-09-27T04:48:14.667Z,0.85
2022-09-27T04:50:41.311Z,0.75
2022-09-27T04:53:07.696Z,0.75
2022-09-27T04:55:34.149Z,0.82
2022-09-27T04:58:01.589Z,0.93
2022-09-27T05:00:28.959Z,0.75
2022-09-27T05:02:55.396Z,2.83
2022-09-27T05:05:22.049Z,0.70
2022-09-27T05:07:48.600Z,2.38
2022-09-27T05:10:15.062Z,1.50
2022-09-27T05:12:41.447Z,0.45
2022-09-27T05:15:08.742Z,0.30
2022-09-27T05:17:35.166Z,0.52
2022-09-27T05:20:02.957Z,0.52
2022-09-27T05:22:29.424Z,0.50
2022-09-27T05:24:55.912Z,0.68
2022-09-27T05:27:22.452Z,0.40
2022-09-27T05:29:48.891Z,0.77
2022-09-27T05:32:15.458Z,0.55
2022-09-27T05:34:41.872Z,0.73
2022-09-27T05:37:08.406Z,0.50
2022-09-27T05:39:34.790Z,0.20
2022-09-27T05:42:02.791Z,0.45
2022-09-27T05:44:29.269Z,1.33
2022-09-27T05:46:55.721Z,0.50
2022-09-27T05:49:22.067Z,0.60
2022-09-27T05:51:48.695Z,0.50
2022-09-27T05:54:15.187Z,0.88
2022-09-27T05:56:41.689Z,0.80
2022-09-27T05:59:08.179Z,0.47
2022-09-27T06:01:35.697Z,0.52
2022-09-27T06:04:04.734Z,0.40
2022-09-27T06:06:34.165Z,1.45
2022-09-27T06:09:01.433Z,0.55
2022-09-27T06:11:28.323Z,1.42
2022-09-27T06:13:54.874Z,0.43
2022-09-27T06:16:21.296Z,0.55
2022-09-27T06:18:47.789Z,0.95
2022-09-27T06:21:14.235Z,0.60
2022-09-27T06:23:40.637Z,0.50
2022-09-27T06:26:08.010Z,1.38
2022-09-27T06:28:37.055Z,0.40
2022-09-27T06:31:06.561Z,0.90
2022-09-27T06:36:07.792Z,0.38
2022-09-27T06:38:34.625Z,0.50
2022-09-27T06:41:03.461Z,0.40
2022-09-27T06:43:31.223Z,0.52
2022-09-27T06:46:04.711Z,0.25
2022-09-27T06:48:32.809Z,0.50
2022-09-27T06:50:59.880Z,0.68
2022-09-27T06:53:26.861Z,0.70
2022-09-27T06:55:53.386Z,0.35
2022-09-27T06:58:38.214Z,0.00
2022-09-27T07:01:04.796Z,0.30
2022-09-27T07:03:40.211Z,0.10
2022-09-27T07:06:16.770Z,0.25
2022-09-27T07:08:43.316Z,0.30
2022-09-27T07:11:09.866Z,0.38
2022-09-27T07:13:40.270Z,0.45
2022-09-27T07:16:07.291Z,0.17
2022-09-27T07:18:33.755Z,0.40
2022-09-27T07:21:01.424Z,1.00
2022-09-27T07:23:28.102Z,0.73
2022-09-27T07:25:54.496Z,0.57
2022-09-27T07:28:22.039Z,0.30
2022-09-27T07:30:49.941Z,0.40
2022-09-27T07:33:16.573Z,0.03
2022-09-27T07:35:43.753Z,0.35
2022-09-27T07:38:13.334Z,1.08
2022-09-27T07:43:08.692Z,0.30
2022-09-27T07:45:35.893Z,0.52
2022-09-27T07:48:07.732Z,0.60
2022-09-27T07:50:35.217Z,0.30
2022-09-27T07:53:01.899Z,2.92
2022-09-27T07:55:28.314Z,0.35
2022-09-27T07:58:02.992Z,0.43
2022-09-27T08:00:29.483Z,0.20
2022-09-27T08:02:55.934Z,0.75
2022-09-27T08:05:22.321Z,0.75
2022-09-27T08:07:54.435Z,1.13
2022-09-27T08:10:20.889Z,0.50
2022-09-27T08:12:47.312Z,0.50
2022-09-27T08:15:13.724Z,0.45
2022-09-27T08:17:40.163Z,0.52
2022-09-27T08:20:07.017Z,0.22
2022-09-27T08:22:33.410Z,0.50
2022-09-27T08:24:59.787Z,1.35
2022-09-27T08:27:26.224Z,1.45
2022-09-27T08:29:52.620Z,0.40
2022-09-27T08:32:23.045Z,0.52
2022-09-27T08:34:50.030Z,0.30
2022-09-27T08:37:16.484Z,1.63
2022-09-27T08:39:47.609Z,0.10
2022-09-27T08:42:23.938Z,1.55
2022-09-27T08:45:15.565Z,0.10
2022-09-27T08:47:45.843Z,0.47
2022-09-27T08:50:28.802Z,1.40
2022-09-27T08:53:00.984Z,1.60
2022-09-27T08:55:33.131Z,0.20
2022-09-27T08:57:59.942Z,0.10
2022-09-27T09:00:29.247Z,0.30
2022-09-27T09:02:57.685Z,0.55
2022-09-27T09:05:31.226Z,0.30
2022-09-27T09:08:11.808Z,0.20
2022-09-27T09:11:02.831Z,0.80
2022-09-27T09:13:47.799Z,0.85
2022-09-27T09:16:28.641Z,1.08
2022-09-27T09:19:10.789Z,0.73
2022-09-27T09:21:46.421Z,0.25
2022-09-27T09:24:50.931Z,0.20
2022-09-27T09:27:23.115Z,0.00
2022-09-27T09:30:18.413Z,0.38
2022-09-27T09:33:16.698Z,0.32
2022-09-27T09:35:48.710Z,0.15
2022-09-27T09:38:27.599Z,0.00
2022-09-27T09:41:23.163Z,0.60
2022-09-27T09:43:57.286Z,0.35
2022-09-27T09:46:32.310Z,0.20
2022-09-27T09:49:04.967Z,0.60
2022-09-27T09:51:40.805Z,1.48
2022-09-27T09:54:13.161Z,0.30
2022-09-27T09:56:45.823Z,0.20
2022-09-27T09:59:23.687Z,0.30
2022-09-27T10:01:50.533Z,1.20
2022-09-27T10:04:24.360Z,1.10
2022-09-27T10:06:52.612Z,0.38
2022-09-27T10:09:24.787Z,0.10
2022-09-27T10:11:51.236Z,0.20
2022-09-27T10:14:20.609Z,0.20
2022-09-27T10:16:50.170Z,0.00
2022-09-27T10:21:46.657Z,1.25
2022-09-27T10:24:18.572Z,0.00
2022-09-27T10:26:48.535Z,0.00
2022-09-27T10:31:47.841Z,0.10
2022-09-27T10:34:34.872Z,0.10
2022-09-27T10:37:11.701Z,0.00
2022-09-27T10:39:40.963Z,0.10
2022-09-27T10:42:20.647Z,0.63
2022-09-27T10:44:47.052Z,1.95
2022-09-27T10:47:22.797Z,0.10
2022-09-27T10:49:53.721Z,0.40
2022-09-27T10:52:22.613Z,0.47
2022-09-27T10:54:59.526Z,1.63
2022-09-27T10:57:28.836Z,1.35
2022-09-27T11:00:22.297Z,0.00
2022-09-27T11:02:54.467Z,0.10
2022-09-27T11:05:25.639Z,0.25
2022-09-27T11:07:55.126Z,0.30
2022-09-27T11:10:29.127Z,0.10
2022-09-27T11:13:22.450Z,1.08
2022-09-27T11:16:07.385Z,0.10
2022-09-27T11:18:45.313Z,0.85
2022-09-27T11:21:26.472Z,0.43
2022-09-27T11:24:13.365Z,0.57
2022-09-27T11:27:05.707Z,0.10
2022-09-27T11:29:38.394Z,2.28
2022-09-27T11:32:18.393Z,0.32
2022-09-27T11:34:59.068Z,0.35
2022-09-27T11:37:43.145Z,0.38
2022-09-27T11:40:37.725Z,1.88
2022-09-27T11:43:21.062Z,0.05
2022-09-27T11:49:19.092Z,1.55
2022-09-27T11:52:24.607Z,0.80
2022-09-27T11:55:16.030Z,0.82
2022-09-27T11:57:45.292Z,0.45
2022-09-27T12:00:21.517Z,0.03
2022-09-27T12:03:24.303Z,0.17
2022-09-27T12:06:08.017Z,0.30
2022-09-27T12:08:44.194Z,1.15
2022-09-27T12:11:52.212Z,2.08
2022-09-27T12:14:27.037Z,0.50
2022-09-27T12:16:55.527Z,1.55
2022-09-27T12:19:27.292Z,0.93
2022-09-27T12:21:58.732Z,0.17
2022-09-27T12:24:25.469Z,0.30
2022-09-27T12:26:55.792Z,1.63
2022-09-27T12:29:27.419Z,0.60
2022-09-27T12:32:17.813Z,0.40
2022-09-27T12:34:56.657Z,1.70
2022-09-27T12:37:31.456Z,1.08
2022-09-27T12:40:07.609Z,0.50
2022-09-27T12:42:43.328Z,1.40
2022-09-27T12:45:17.960Z,0.45
2022-09-27T12:47:53.399Z,2.83
2022-09-27T12:50:30.247Z,0.20
2022-09-27T12:53:05.673Z,0.30
2022-09-27T12:55:46.926Z,0.20
2022-09-27T12:58:38.114Z,0.35
2022-09-27T13:01:27.631Z,1.17
2022-09-27T13:06:52.465Z,1.35
2022-09-27T13:09:44.397Z,0.70
2022-09-27T13:12:22.843Z,0.98
2022-09-27T13:15:13.462Z,0.40
2022-09-27T13:17:40.797Z,0.50
2022-09-27T13:20:26.190Z,0.57
2022-09-27T13:22:52.647Z,0.55
2022-09-27T13:25:48.792Z,1.02
2022-09-27T13:28:36.542Z,0.68
2022-09-27T13:31:15.181Z,0.35
2022-09-27T13:36:26.191Z,0.08
2022-09-27T13:39:01.639Z,0.25
2022-09-27T13:41:36.133Z,0.43
2022-09-27T13:44:29.466Z,0.45
2022-09-27T13:47:06.638Z,0.50
2022-09-27T13:49:50.656Z,0.03
2022-09-27T13:52:37.802Z,0.30
2022-09-27T13:55:27.490Z,0.20
2022-09-27T13:57:58.489Z,0.45
2022-09-27T14:00:29.691Z,0.15
2022-09-27T14:03:05.083Z,0.63
2022-09-27T14:05:53.007Z,0.93
2022-09-27T14:08:42.827Z,0.82
2022-09-27T14:11:21.509Z,0.60
2022-09-27T14:13:49.320Z,0.20
2022-09-27T14:16:18.215Z,0.52
2022-09-27T14:18:50.749Z,0.60
2022-09-27T14:21:26.104Z,1.35
2022-09-27T14:23:52.564Z,0.35
2022-09-27T14:26:27.581Z,0.65
2022-09-27T14:28:53.990Z,0.73
2022-09-27T14:31:26.748Z,0.20
2022-09-27T14:34:05.728Z,0.20
2022-09-27T14:36:52.613Z,0.20
2022-09-27T14:39:25.396Z,0.10
2022-09-27T14:41:52.242Z,0.57
2022-09-27T14:44:23.538Z,0.40
2022-09-27T14:47:18.391Z,0.75
2022-09-27T14:49:57.339Z,0.50
2022-09-27T14:52:35.327Z,0.45
2022-09-27T14:55:08.663Z,0.30
2022-09-27T14:57:37.073Z,0.52
2022-09-27T15:00:19.043Z,0.57
2022-09-27T15:02:45.886Z,0.38
2022-09-27T15:05:17.615Z,0.38
2022-09-27T15:07:46.480Z,0.40
2022-09-27T15:10:21.378Z,0.20
2022-09-27T15:12:50.847Z,0.30
2022-09-27T15:15:24.387Z,0.98
2022-09-27T15:17:50.892Z,0.43
2022-09-27T15:20:29.870Z,0.20
2022-09-27T15:23:05.431Z,1.02
2022-09-27T15:25:38.731Z,0.40
2022-09-27T15:28:19.324Z,0.50
2022-09-27T15:30:54.571Z,0.28
2022-09-27T15:33:26.639Z,0.10
2022-09-27T15:35:55.979Z,0.10
2022-09-27T15:38:36.038Z,0.40
2022-09-27T15:41:05.922Z,0.28
2022-09-27T15:43:49.650Z,1.42
2022-09-27T15:46:21.876Z,0.40
2022-09-27T15:49:16.604Z,0.28
2022-09-27T15:51:45.608Z,0.10
2022-09-27T15:54:12.215Z,0.38
2022-09-27T15:56:41.929Z,0.38
2022-09-27T15:59:19.506Z,0.40
2022-09-27T16:01:46.006Z,0.47
2022-09-27T16:04:12.575Z,0.73
2022-09-27T16:06:39.315Z,2.17
2022-09-27T16:09:05.720Z,0.52
2022-09-27T16:11:32.070Z,0.20
2022-09-27T16:13:58.505Z,0.55
2022-09-27T16:16:25.002Z,1.05
2022-09-27T16:18:51.426Z,0.57
2022-09-27T16:21:18.162Z,0.40
2022-09-27T16:23:44.687Z,0.52
2022-09-27T16:26:11.101Z,0.38
2022-09-27T16:28:37.639Z,1.73
2022-09-27T16:31:06.041Z,1.52
2022-09-27T16:33:33.653Z,1.20
2022-09-27T16:36:03.501Z,0.40
2022-09-27T16:38:30.311Z,0.28
2022-09-27T16:41:03.222Z,0.32
2022-09-27T16:43:31.642Z,0.30
2022-09-27T16:46:11.626Z,0.30
2022-09-27T16:48:38.886Z,0.68
2022-09-27T16:51:26.535Z,0.40
2022-09-27T16:53:52.954Z,0.35
2022-09-27T16:56:20.327Z,0.55
2022-09-27T16:58:47.859Z,0.52
2022-09-27T17:01:16.873Z,0.73
2022-09-27T17:03:45.383Z,0.30
2022-09-27T17:06:12.524Z,0.15
2022-09-27T17:08:38.923Z,0.35
2022-09-27T17:11:06.393Z,0.55
2022-09-27T17:13:34.049Z,0.32
2022-09-27T17:16:04.038Z,0.13
2022-09-27T17:18:30.797Z,0.57
2022-09-27T17:21:02.712Z,0.85
2022-09-27T17:23:30.593Z,0.32
2022-09-27T17:26:05.784Z,0.22
2022-09-27T17:28:32.296Z,0.50
2022-09-27T17:31:03.496Z,0.50
2022-09-27T17:33:31.136Z,0.30
2022-09-27T17:36:00.099Z,1.67
2022-09-27T17:38:26.475Z,8.35
2022-09-27T17:41:10.404Z,9.55
2022-09-27T17:43:39.344Z,9.05
2022-09-27T17:46:10.177Z,9.82
2022-09-27T17:48:56.080Z,9.05
2022-09-27T17:51:23.284Z,22.08
2022-09-27T17:53:49.997Z,9.93
2022-09-27T17:56:17.246Z,3.67
2022-09-27T17:58:51.056Z,7.25
2022-09-27T18:01:19.597Z,8.30
2022-09-27T18:03:46.732Z,7.55
2022-09-27T18:06:16.215Z,7.90
2022-09-27T18:08:42.707Z,8.02
2022-09-27T18:11:14.521Z,2.40
2022-09-27T18:13:42.462Z,5.88
2022-09-27T18:16:11.286Z,6.93
2022-09-27T18:18:39.537Z,6.82
2022-09-27T18:21:11.319Z,6.63
2022-09-27T18:23:38.449Z,2.42
2022-09-27T18:26:08.279Z,5.85
2022-09-27T18:28:40.107Z,3.05
2022-09-27T18:31:15.521Z,5.25
2022-09-27T18:33:43.941Z,5.18
2022-09-27T18:36:17.069Z,5.65
2022-09-27T18:38:44.139Z,5.65
2022-09-27T18:41:13.131Z,5.60
2022-09-27T18:43:40.306Z,5.88
2022-09-27T18:46:33.864Z,2.15
2022-09-27T18:48:56.699Z,5.85
2022-09-27T18:51:27.750Z,5.72
2022-09-27T18:53:58.775Z,6.00
2022-09-27T18:56:25.872Z,5.85
2022-09-27T18:58:52.348Z,5.07
2022-09-27T19:01:19.831Z,5.32
2022-09-27T19:03:46.753Z,4.40
2022-09-27T19:06:21.883Z,5.25
2022-09-27T19:08:58.604Z,4.80
2022-09-27T19:11:26.947Z,3.85
2022-09-27T19:13:56.157Z,4.07
2022-09-27T19:16:24.230Z,4.00
2022-09-27T19:18:51.269Z,1.30
2022-09-27T19:21:26.216Z,4.18
2022-09-27T19:23:53.143Z,3.97
2022-09-27T19:26:22.856Z,3.83
2022-09-27T19:28:49.815Z,4.70
2022-09-27T19:31:19.007Z,3.60
2022-09-27T19:33:46.163Z,3.63
2022-09-27T19:36:14.759Z,2.88
2022-09-27T19:38:41.264Z,3.03
2022-09-27T19:41:10.530Z,3.13
2022-09-27T19:43:37.410Z,2.50
2022-09-27T19:46:08.522Z,3.40
2022-09-27T19:48:41.384Z,2.85
2022-09-27T19:51:12.566Z,2.70
2022-09-27T19:53:38.975Z,3.90
2022-09-27T19:56:07.666Z,2.88
2022-09-27T19:58:36.092Z,2.83
2022-09-27T20:01:04.088Z,3.03
2022-09-27T20:03:30.584Z,2.30
2022-09-27T20:05:58.320Z,1.90
2022-09-27T20:08:25.126Z,3.15
2022-09-27T20:11:16.009Z,2.30
2022-09-27T20:13:43.656Z,2.20
2022-09-27T20:16:15.652Z,2.20
2022-09-27T20:18:44.213Z,2.22
2022-09-27T20:21:11.536Z,1.17
2022-09-27T20:23:38.663Z,2.50
2022-09-27T20:26:10.521Z,2.55
2022-09-27T20:28:42.358Z,2.50
2022-09-27T20:31:11.021Z,2.38
2022-09-27T20:33:46.880Z,2.83
2022-09-27T20:36:25.246Z,2.05
2022-09-27T20:39:03.057Z,0.25
2022-09-27T20:41:32.499Z,2.53
2022-09-27T20:44:01.365Z,1.90
2022-09-27T20:46:27.869Z,2.67
2022-09-27T20:48:59.960Z,1.83
2022-09-27T20:51:27.707Z,1.38
2022-09-27T20:53:54.707Z,2.10
2022-09-27T20:56:26.702Z,1.83
2022-09-27T20:58:55.654Z,1.83
2022-09-27T21:01:23.692Z,1.42
2022-09-27T21:04:00.984Z,2.17
2022-09-27T21:06:28.345Z,1.77
2022-09-27T21:08:55.349Z,1.88
2022-09-27T21:11:22.686Z,0.47
2022-09-27T21:13:50.523Z,1.70
2022-09-27T21:16:20.195Z,1.38
2022-09-27T21:18:50.722Z,1.33
2022-09-27T21:21:18.437Z,1.85
2022-09-27T21:23:46.008Z,1.15
2022-09-27T21:26:17.869Z,1.10
2022-09-27T21:28:49.612Z,1.40
2022-09-27T21:31:22.590Z,0.90
2022-09-27T21:33:53.662Z,1.58
2022-09-27T21:36:21.638Z,1.15
2022-09-27T21:38:48.100Z,1.05
2022-09-27T21:41:15.938Z,1.45
2022-09-27T21:43:44.402Z,1.60
2022-09-27T21:46:16.448Z,3.78
2022-09-27T21:48:46.323Z,1.05
2022-09-27T21:51:14.268Z,1.23
2022-09-27T21:53:43.476Z,2.67
2022-09-27T21:56:11.386Z,2.28
2022-09-27T21:58:39.869Z,5.10
2022-09-27T22:01:19.712Z,2.45
2022-09-27T22:03:47.207Z,2.75
2022-09-27T22:06:20.347Z,1.63
2022-09-27T22:08:48.477Z,2.08
2022-09-27T22:11:17.582Z,1.67
2022-09-27T22:13:43.980Z,1.58
2022-09-27T22:16:14.099Z,2.28
2022-09-27T22:18:44.457Z,1.65
2022-09-27T22:21:14.666Z,1.67
2022-09-27T22:23:41.136Z,2.17
2022-09-27T22:26:11.745Z,1.00
2022-09-27T22:28:38.204Z,1.85
2022-09-27T22:31:04.983Z,0.40
2022-09-27T22:33:31.831Z,1.83
2022-09-27T22:35:58.198Z,1.33
2022-09-27T22:38:24.572Z,1.35
2022-09-27T22:40:59.643Z,0.73
2022-09-27T22:43:29.276Z,1.45
2022-09-27T22:48:23.484Z,0.90
2022-09-27T22:50:49.869Z,1.80
2022-09-27T22:53:16.268Z,1.23
2022-09-27T22:55:42.901Z,1.15
2022-09-27T22:58:09.440Z,1.15
2022-09-27T23:00:38.085Z,0.98
2022-09-27T23:03:04.491Z,1.47
2022-09-27T23:05:30.914Z,0.88
2022-09-27T23:07:57.335Z,1.08
2022-09-27T23:10:23.804Z,1.48
2022-09-27T23:12:58.176Z,0.63
2022-09-27T23:15:24.638Z,1.65
2022-09-27T23:17:51.441Z,1.00
2022-09-27T23:20:18.513Z,1.08
2022-09-27T23:22:45.467Z,1.05
2022-09-27T23:25:12.181Z,1.02
2022-09-27T23:27:41.852Z,1.08
2022-09-27T23:32:39.396Z,0.60
2022-09-27T23:35:06.480Z,0.30
2022-09-27T23:37:32.915Z,0.00
2022-09-27T23:39:59.384Z,0.13
2022-09-27T23:42:26.975Z,1.38
2022-09-27T23:44:53.549Z,1.00
2022-09-27T23:47:20.001Z,0.73
2022-09-27T23:49:46.404Z,1.10
2022-09-27T23:52:13.039Z,0.50
2022-09-27T23:54:39.545Z,0.70
2022-09-27T23:57:05.991Z,0.95
2022-09-27T23:59:32.401Z,1.00
